createdAt,value
2017-12-01T00:01:50.801Z,18.60
2017-12-01T00:04:18.325Z,17.58
2017-12-01T00:06:45.892Z,17.75
2017-12-01T00:09:14.303Z,17.80
2017-12-01T00:11:41.921Z,21.17
2017-12-01T00:16:43.178Z,20.30
2017-12-01T00:19:10.662Z,19.73
2017-12-01T00:21:38.923Z,20.95
2017-12-01T00:24:06.473Z,21.20
2017-12-01T00:26:33.966Z,20.58
2017-12-01T00:29:01.439Z,19.60
2017-12-01T00:31:28.926Z,19.10
2017-12-01T00:33:56.406Z,19.15
2017-12-01T00:36:23.909Z,18.35
2017-12-01T00:38:51.457Z,21.40
2017-12-01T00:41:19.707Z,21.90
2017-12-01T00:43:47.221Z,21.27
2017-12-01T00:46:14.759Z,19.60
2017-12-01T00:48:42.263Z,20.23
2017-12-01T00:51:09.763Z,18.62
2017-12-01T00:53:37.265Z,18.75
2017-12-01T00:56:04.786Z,19.48
2017-12-01T00:58:32.263Z,20.35
2017-12-01T01:00:59.774Z,19.80
2017-12-01T01:03:27.302Z,18.95
2017-12-01T01:05:54.796Z,20.50
2017-12-01T01:08:22.326Z,21.65
2017-12-01T01:10:49.829Z,20.40
2017-12-01T01:13:17.347Z,21.70
2017-12-01T01:15:44.849Z,20.92
2017-12-01T01:18:12.361Z,21.30
2017-12-01T01:20:39.852Z,20.23
2017-12-01T01:23:07.334Z,21.27
2017-12-01T01:25:34.835Z,19.90
2017-12-01T01:28:02.311Z,21.35
2017-12-01T01:30:29.800Z,22.30
2017-12-01T01:32:57.325Z,22.17
2017-12-01T01:35:24.806Z,23.65
2017-12-01T01:37:52.284Z,22.50
2017-12-01T01:40:19.803Z,22.25
2017-12-01T01:42:47.394Z,22.50
2017-12-01T01:45:15.003Z,23.48
2017-12-01T01:47:42.488Z,20.83
2017-12-01T01:50:10.763Z,21.83
2017-12-01T01:52:38.994Z,23.73
2017-12-01T01:55:07.282Z,21.30
2017-12-01T01:57:34.783Z,23.90
2017-12-01T02:00:03.061Z,22.00
2017-12-01T02:02:30.550Z,22.48
2017-12-01T02:04:58.144Z,23.52
2017-12-01T02:07:25.608Z,22.75
2017-12-01T02:09:53.139Z,25.25
2017-12-01T02:12:20.647Z,23.70
2017-12-01T02:14:48.156Z,21.58
2017-12-01T02:17:15.651Z,23.40
2017-12-01T02:19:43.138Z,24.80
2017-12-01T02:22:10.680Z,25.80
2017-12-01T02:24:38.918Z,24.17
2017-12-01T02:27:06.381Z,24.15
2017-12-01T02:29:33.884Z,23.98
2017-12-01T02:32:01.396Z,22.37
2017-12-01T02:34:28.904Z,21.33
2017-12-01T02:36:56.463Z,24.37
2017-12-01T02:39:23.942Z,24.10
2017-12-01T02:41:51.410Z,25.08
2017-12-01T02:44:18.913Z,25.00
2017-12-01T02:46:47.231Z,24.35
2017-12-01T02:49:14.722Z,21.10
2017-12-01T02:51:42.243Z,24.50
2017-12-01T02:54:09.800Z,24.42
2017-12-01T02:56:37.302Z,21.40
2017-12-01T02:59:04.831Z,23.92
2017-12-01T03:01:32.305Z,23.85
2017-12-01T03:03:59.820Z,23.92
2017-12-01T03:06:27.294Z,22.75
2017-12-01T03:08:54.752Z,20.98
2017-12-01T03:11:22.263Z,23.42
2017-12-01T03:13:50.514Z,24.23
2017-12-01T03:16:17.984Z,20.88
2017-12-01T03:18:45.461Z,21.60
2017-12-01T03:21:12.990Z,22.10
2017-12-01T03:23:40.478Z,22.05
2017-12-01T03:26:07.972Z,22.17
2017-12-01T03:28:35.487Z,23.35
2017-12-01T03:31:03.742Z,21.33
2017-12-01T03:33:31.286Z,22.35
2017-12-01T03:35:58.770Z,22.33
2017-12-01T03:38:27.031Z,23.27
2017-12-01T03:40:54.539Z,21.70
2017-12-01T03:43:22.072Z,23.10
2017-12-01T03:45:50.340Z,20.45
2017-12-01T03:48:18.620Z,21.80
2017-12-01T03:50:46.121Z,20.80
2017-12-01T03:53:13.693Z,21.20
2017-12-01T03:55:41.225Z,23.00
2017-12-01T03:58:08.722Z,19.70
2017-12-01T04:00:36.190Z,21.98
2017-12-01T04:03:03.720Z,21.33
2017-12-01T04:05:31.202Z,20.88
2017-12-01T04:07:58.697Z,20.20
2017-12-01T04:10:26.188Z,22.70
2017-12-01T04:12:53.740Z,21.67
2017-12-01T04:15:21.952Z,20.77
2017-12-01T04:17:49.492Z,19.77
2017-12-01T04:20:16.968Z,20.30
2017-12-01T04:22:44.443Z,19.23
2017-12-01T04:25:12.678Z,20.55
2017-12-01T04:27:40.160Z,19.85
2017-12-01T04:30:07.635Z,19.48
2017-12-01T04:32:35.915Z,20.70
2017-12-01T04:35:03.564Z,19.12
2017-12-01T04:37:31.064Z,20.23
2017-12-01T04:39:58.563Z,18.02
2017-12-01T04:42:26.062Z,20.35
2017-12-01T04:44:54.317Z,20.05
2017-12-01T04:47:22.574Z,20.42
2017-12-01T04:49:50.099Z,19.20
2017-12-01T04:52:17.655Z,20.25
2017-12-01T04:54:45.149Z,17.40
2017-12-01T04:57:12.638Z,19.10
2017-12-01T04:59:40.909Z,18.20
2017-12-01T05:02:09.246Z,19.20
2017-12-01T05:04:36.752Z,17.73
2017-12-01T05:07:05.033Z,19.15
2017-12-01T05:09:32.584Z,19.30
2017-12-01T05:12:00.063Z,19.30
2017-12-01T05:14:27.601Z,18.27
2017-12-01T05:16:55.189Z,17.80
2017-12-01T05:19:22.734Z,19.48
2017-12-01T05:21:50.308Z,17.08
2017-12-01T05:24:17.802Z,18.33
2017-12-01T05:26:45.360Z,18.35
2017-12-01T05:29:12.899Z,20.73
2017-12-01T05:31:40.423Z,18.80
2017-12-01T05:34:07.923Z,18.52
2017-12-01T05:36:35.415Z,16.50
2017-12-01T05:39:02.951Z,16.85
2017-12-01T05:41:30.470Z,16.95
2017-12-01T05:43:57.988Z,17.05
2017-12-01T05:46:25.495Z,17.33
2017-12-01T05:48:52.962Z,18.40
2017-12-01T05:51:20.508Z,15.63
2017-12-01T05:53:48.010Z,18.05
2017-12-01T05:56:15.524Z,18.15
2017-12-01T05:58:43.024Z,17.05
2017-12-01T06:01:10.518Z,17.25
2017-12-01T06:03:38.032Z,19.37
2017-12-01T06:06:05.539Z,17.85
2017-12-01T06:08:33.822Z,17.80
2017-12-01T06:11:01.370Z,16.75
2017-12-01T06:13:28.879Z,17.70
2017-12-01T06:15:56.337Z,17.40
2017-12-01T06:18:23.818Z,18.05
2017-12-01T06:20:51.324Z,16.80
2017-12-01T06:23:18.854Z,16.48
2017-12-01T06:25:52.468Z,17.87
2017-12-01T06:28:26.651Z,19.00
2017-12-01T06:30:58.690Z,17.33
2017-12-01T06:33:26.359Z,19.55
2017-12-01T06:35:54.207Z,17.83
2017-12-01T06:38:21.890Z,18.60
2017-12-01T06:40:54.576Z,18.50
2017-12-01T06:43:26.223Z,18.90
2017-12-01T06:45:57.766Z,17.60
2017-12-01T06:48:27.997Z,17.50
2017-12-01T06:53:38.155Z,21.05
2017-12-01T06:56:06.098Z,18.60
2017-12-01T06:58:47.686Z,19.60
2017-12-01T07:03:56.494Z,19.67
2017-12-01T07:06:23.996Z,19.08
2017-12-01T07:08:51.466Z,18.05
2017-12-01T07:11:19.843Z,16.98
2017-12-01T07:13:47.329Z,19.45
2017-12-01T07:16:15.548Z,18.37
2017-12-01T07:18:42.993Z,19.83
2017-12-01T07:21:11.333Z,17.62
2017-12-01T07:23:39.558Z,19.58
2017-12-01T07:26:18.763Z,18.48
2017-12-01T07:28:46.214Z,18.83
2017-12-01T07:31:13.693Z,17.20
2017-12-01T07:33:41.179Z,22.20
2017-12-01T07:36:08.663Z,21.30
2017-12-01T07:38:36.132Z,19.20
2017-12-01T07:41:03.580Z,19.05
2017-12-01T07:43:31.029Z,18.58
2017-12-01T07:45:58.483Z,20.10
2017-12-01T07:48:25.934Z,18.70
2017-12-01T07:50:53.415Z,18.42
2017-12-01T07:53:20.883Z,19.33
2017-12-01T07:55:48.338Z,19.50
2017-12-01T07:58:16.559Z,18.92
2017-12-01T08:00:44.010Z,20.27
2017-12-01T08:03:11.467Z,19.27
2017-12-01T08:05:38.940Z,18.80
2017-12-01T08:08:06.390Z,19.58
2017-12-01T08:10:33.829Z,19.48
2017-12-01T08:13:01.305Z,18.62
2017-12-01T08:15:28.758Z,21.35
2017-12-01T08:18:07.955Z,21.25
2017-12-01T08:20:35.425Z,20.20
2017-12-01T08:23:02.952Z,19.98
2017-12-01T08:25:40.288Z,22.08
2017-12-01T08:28:07.753Z,18.30
2017-12-01T08:30:35.201Z,19.37
2017-12-01T08:33:02.686Z,19.10
2017-12-01T08:35:30.230Z,20.62
2017-12-01T08:37:57.692Z,21.55
2017-12-01T08:40:25.145Z,19.55
2017-12-01T08:42:52.614Z,20.27
2017-12-01T08:45:20.058Z,20.70
2017-12-01T08:47:47.542Z,19.33
2017-12-01T08:50:14.986Z,19.73
2017-12-01T08:52:42.432Z,20.62
2017-12-01T08:55:09.893Z,20.70
2017-12-01T08:57:37.364Z,20.80
2017-12-01T09:00:04.808Z,20.52
2017-12-01T09:02:32.283Z,21.40
2017-12-01T09:04:59.737Z,21.65
2017-12-01T09:07:27.187Z,22.08
2017-12-01T09:09:54.634Z,20.75
2017-12-01T09:12:22.095Z,19.40
2017-12-01T09:14:49.545Z,20.33
2017-12-01T09:17:17.007Z,19.65
2017-12-01T09:19:44.466Z,18.83
2017-12-01T09:22:11.921Z,19.17
2017-12-01T09:24:39.380Z,19.73
2017-12-01T09:27:06.836Z,19.87
2017-12-01T09:29:34.320Z,17.12
2017-12-01T09:32:02.555Z,17.90
2017-12-01T09:34:30.006Z,20.52
2017-12-01T09:36:57.462Z,18.75
2017-12-01T09:39:24.934Z,19.27
2017-12-01T09:41:52.408Z,18.67
2017-12-01T09:44:19.893Z,18.15
2017-12-01T09:46:47.345Z,18.48
2017-12-01T09:49:14.790Z,19.75
2017-12-01T09:51:43.024Z,17.92
2017-12-01T09:54:10.520Z,16.77
2017-12-01T09:56:38.735Z,17.17
2017-12-01T09:59:06.184Z,16.98
2017-12-01T10:01:33.628Z,17.35
2017-12-01T10:04:01.097Z,16.80
2017-12-01T10:06:28.546Z,15.98
2017-12-01T10:08:56.045Z,16.65
2017-12-01T10:11:23.509Z,20.15
2017-12-01T10:13:50.969Z,17.12
2017-12-01T10:16:18.430Z,17.60
2017-12-01T10:18:45.882Z,17.20
2017-12-01T10:21:13.330Z,16.67
2017-12-01T10:23:40.792Z,18.00
2017-12-01T10:26:08.246Z,16.45
2017-12-01T10:28:35.697Z,16.52
2017-12-01T10:31:03.156Z,16.83
2017-12-01T10:33:30.639Z,17.35
2017-12-01T10:35:58.069Z,17.73
2017-12-01T10:38:25.533Z,15.40
2017-12-01T10:40:53.005Z,16.87
2017-12-01T10:43:20.473Z,16.65
2017-12-01T10:45:48.701Z,17.40
2017-12-01T10:48:16.150Z,18.60
2017-12-01T10:50:43.607Z,16.65
2017-12-01T10:53:11.068Z,18.17
2017-12-01T10:55:38.514Z,17.58
2017-12-01T10:58:05.953Z,20.20
2017-12-01T11:00:33.418Z,17.65
2017-12-01T11:03:00.909Z,17.95
2017-12-01T11:05:28.370Z,18.50
2017-12-01T11:07:55.822Z,17.70
2017-12-01T11:10:23.279Z,17.12
2017-12-01T11:12:50.729Z,17.02
2017-12-01T11:15:18.205Z,18.05
2017-12-01T11:17:45.649Z,18.12
2017-12-01T11:20:13.098Z,18.17
2017-12-01T11:22:40.571Z,16.20
2017-12-01T11:25:08.015Z,17.70
2017-12-01T11:27:35.482Z,17.75
2017-12-01T11:30:02.943Z,17.85
2017-12-01T11:32:30.401Z,19.37
2017-12-01T11:34:57.859Z,18.33
2017-12-01T11:37:25.314Z,18.52
2017-12-01T11:39:52.769Z,16.48
2017-12-01T11:42:20.224Z,19.87
2017-12-01T11:44:47.678Z,18.58
2017-12-01T11:47:15.134Z,19.10
2017-12-01T11:49:42.639Z,20.05
2017-12-01T11:52:10.085Z,19.30
2017-12-01T11:54:37.538Z,18.83
2017-12-01T11:57:04.988Z,18.62
2017-12-01T11:59:32.439Z,17.10
2017-12-01T12:01:59.893Z,20.77
2017-12-01T12:04:27.353Z,18.58
2017-12-01T12:06:54.808Z,18.77
2017-12-01T12:09:22.261Z,17.67
2017-12-01T12:11:49.726Z,18.35
2017-12-01T12:14:17.179Z,16.37
2017-12-01T12:16:44.636Z,18.65
2017-12-01T12:19:12.136Z,17.98
2017-12-01T12:21:39.587Z,19.08
2017-12-01T12:24:07.118Z,18.35
2017-12-01T12:26:34.631Z,17.50
2017-12-01T12:29:02.134Z,16.62
2017-12-01T12:31:29.598Z,17.40
2017-12-01T12:33:57.883Z,18.52
2017-12-01T12:36:26.081Z,16.83
2017-12-01T12:38:53.567Z,17.90
2017-12-01T12:41:21.049Z,18.15
2017-12-01T12:43:48.577Z,17.20
2017-12-01T12:46:16.092Z,16.98
2017-12-01T12:48:43.604Z,16.83
2017-12-01T12:51:11.134Z,16.55
2017-12-01T12:53:38.623Z,17.70
2017-12-01T12:56:06.107Z,19.02
2017-12-01T12:58:34.371Z,17.95
2017-12-01T13:01:01.833Z,17.95
2017-12-01T13:03:29.288Z,15.93
2017-12-01T13:05:57.506Z,16.35
2017-12-01T13:08:24.992Z,17.45
2017-12-01T13:10:52.474Z,15.77
2017-12-01T13:13:19.924Z,16.40
2017-12-01T13:15:47.416Z,18.65
2017-12-01T13:18:14.905Z,15.00
2017-12-01T13:20:42.394Z,17.55
2017-12-01T13:23:09.873Z,16.95
2017-12-01T13:25:38.093Z,16.60
2017-12-01T13:28:05.615Z,16.67
2017-12-01T13:30:33.110Z,16.83
2017-12-01T13:33:00.615Z,16.17
2017-12-01T13:35:28.082Z,17.10
2017-12-01T13:37:55.704Z,15.75
2017-12-01T13:40:23.214Z,15.10
2017-12-01T13:42:50.661Z,15.43
2017-12-01T13:45:18.216Z,14.10
2017-12-01T13:47:45.682Z,15.32
2017-12-01T13:50:13.209Z,15.30
2017-12-01T13:52:40.785Z,15.15
2017-12-01T13:55:08.267Z,15.13
2017-12-01T13:57:37.450Z,14.75
2017-12-01T14:00:05.003Z,13.50
2017-12-01T14:02:32.558Z,16.20
2017-12-01T14:05:00.073Z,13.30
2017-12-01T14:07:27.612Z,13.10
2017-12-01T14:09:55.041Z,11.65
2017-12-01T14:12:22.497Z,12.32
2017-12-01T14:14:49.952Z,10.98
2017-12-01T14:17:17.413Z,11.98
2017-12-01T14:19:44.862Z,9.48
2017-12-01T14:22:13.072Z,10.75
2017-12-01T14:24:40.552Z,10.15
2017-12-01T14:27:08.037Z,10.48
2017-12-01T14:29:35.486Z,13.02
2017-12-01T14:32:02.949Z,11.55
2017-12-01T14:34:30.533Z,11.18
2017-12-01T14:36:58.046Z,11.43
2017-12-01T14:39:25.509Z,10.43
2017-12-01T14:41:52.965Z,10.73
2017-12-01T14:44:20.464Z,12.02
2017-12-01T14:46:47.916Z,11.65
2017-12-01T14:49:15.359Z,11.70
2017-12-01T14:51:43.581Z,11.27
2017-12-01T14:54:11.089Z,11.95
2017-12-01T14:56:38.549Z,11.68
2017-12-01T14:59:06.785Z,12.98
2017-12-01T15:01:34.262Z,12.52
2017-12-01T15:04:01.762Z,12.88
2017-12-01T15:06:29.241Z,12.95
2017-12-01T15:08:56.693Z,12.55
2017-12-01T15:11:24.224Z,13.62
2017-12-01T15:13:51.635Z,13.52
2017-12-01T15:16:19.109Z,15.20
2017-12-01T15:18:46.570Z,13.65
2017-12-01T15:21:14.155Z,15.43
2017-12-01T15:23:41.622Z,14.82
2017-12-01T15:26:09.898Z,13.23
2017-12-01T15:28:37.351Z,14.73
2017-12-01T15:31:04.823Z,13.90
2017-12-01T15:33:32.284Z,14.57
2017-12-01T15:35:59.775Z,16.70
2017-12-01T15:38:27.258Z,15.70
2017-12-01T15:40:55.482Z,15.75
2017-12-01T15:43:22.992Z,16.10
2017-12-01T15:45:51.238Z,15.90
2017-12-01T15:48:18.729Z,15.65
2017-12-01T15:50:46.197Z,13.98
2017-12-01T15:53:13.689Z,15.85
2017-12-01T15:55:41.164Z,16.35
2017-12-01T15:58:08.633Z,16.80
2017-12-01T16:00:36.111Z,17.02
2017-12-01T16:03:03.578Z,16.30
2017-12-01T16:05:31.065Z,15.43
2017-12-01T16:07:58.558Z,17.05
2017-12-01T16:10:26.041Z,17.83
2017-12-01T16:12:53.706Z,16.10
2017-12-01T16:15:21.989Z,16.37
2017-12-01T16:17:49.583Z,15.90
2017-12-01T16:20:17.057Z,15.95
2017-12-01T16:22:44.578Z,17.50
2017-12-01T16:25:12.026Z,14.98
2017-12-01T16:27:39.478Z,16.37
2017-12-01T16:30:06.990Z,15.05
2017-12-01T16:32:42.300Z,15.82
2017-12-01T16:35:01.927Z,17.35
2017-12-01T16:37:29.401Z,17.00
2017-12-01T16:39:57.654Z,14.80
2017-12-01T16:42:25.114Z,16.17
2017-12-01T16:44:52.567Z,16.50
2017-12-01T16:47:20.044Z,18.17
2017-12-01T16:49:48.274Z,17.45
2017-12-01T16:52:15.741Z,16.45
2017-12-01T16:54:43.246Z,17.60
2017-12-01T16:57:10.727Z,18.35
2017-12-01T16:59:38.214Z,15.95
2017-12-01T17:02:05.744Z,16.92
2017-12-01T17:04:33.313Z,16.12
2017-12-01T17:07:00.833Z,17.95
2017-12-01T17:09:29.078Z,17.33
2017-12-01T17:11:56.603Z,17.25
2017-12-01T17:14:24.099Z,15.93
2017-12-01T17:16:51.583Z,17.40
2017-12-01T17:19:20.944Z,16.77
2017-12-01T17:21:48.437Z,15.68
2017-12-01T17:24:16.681Z,15.05
2017-12-01T17:26:44.174Z,17.20
2017-12-01T17:29:12.446Z,17.50
2017-12-01T17:31:40.090Z,17.67
2017-12-01T17:34:07.641Z,17.15
2017-12-01T17:36:35.123Z,18.25
2017-12-01T17:39:03.419Z,18.37
2017-12-01T17:41:30.996Z,16.05
2017-12-01T17:43:58.493Z,16.98
2017-12-01T17:46:25.959Z,17.10
2017-12-01T17:48:53.427Z,15.63
2017-12-01T17:51:21.005Z,16.30
2017-12-01T17:53:50.347Z,17.35
2017-12-01T17:56:18.372Z,17.70
2017-12-01T17:58:45.857Z,20.67
2017-12-01T18:01:13.331Z,21.35
2017-12-01T18:03:40.952Z,22.15
2017-12-01T18:06:08.411Z,20.20
2017-12-01T18:08:36.114Z,18.73
2017-12-01T18:11:03.620Z,23.55
2017-12-01T18:13:31.494Z,23.40
2017-12-01T18:16:00.082Z,20.48
2017-12-01T18:18:27.739Z,22.15
2017-12-01T18:20:55.653Z,21.50
2017-12-01T18:23:23.253Z,23.02
2017-12-01T18:25:50.745Z,22.13
2017-12-01T18:28:19.036Z,19.58
2017-12-01T18:30:46.479Z,22.73
2017-12-01T18:33:13.950Z,21.58
2017-12-01T18:35:41.858Z,20.98
2017-12-01T18:38:09.583Z,21.58
2017-12-01T18:40:37.057Z,19.58
2017-12-01T18:43:05.688Z,22.50
2017-12-01T18:45:33.355Z,21.70
2017-12-01T18:48:00.843Z,19.90
2017-12-01T18:50:28.335Z,20.02
2017-12-01T18:52:55.894Z,21.12
2017-12-01T18:55:24.143Z,18.75
2017-12-01T18:57:51.631Z,18.80
2017-12-01T19:00:19.132Z,21.65
2017-12-01T19:02:48.707Z,19.35
2017-12-01T19:05:16.958Z,20.58
2017-12-01T19:07:44.451Z,21.23
2017-12-01T19:10:11.994Z,20.40
2017-12-01T19:12:39.508Z,19.70
2017-12-01T19:15:07.784Z,20.17
2017-12-01T19:17:35.444Z,20.58
2017-12-01T19:20:02.918Z,19.35
2017-12-01T19:22:30.412Z,20.70
2017-12-01T19:24:57.962Z,19.83
2017-12-01T19:27:26.222Z,19.55
2017-12-01T19:29:53.704Z,20.40
2017-12-01T19:32:21.170Z,18.17
2017-12-01T19:34:48.679Z,18.62
2017-12-01T19:37:16.199Z,19.75
2017-12-01T19:39:43.682Z,23.42
2017-12-01T19:42:11.212Z,23.48
2017-12-01T19:44:38.708Z,23.80
2017-12-01T19:47:06.194Z,23.17
2017-12-01T19:49:33.660Z,22.92
2017-12-01T19:52:01.925Z,21.55
2017-12-01T19:54:29.426Z,21.92
2017-12-01T19:56:56.910Z,21.67
2017-12-01T19:59:24.382Z,21.58
2017-12-01T20:01:51.952Z,22.50
2017-12-01T20:04:20.181Z,19.62
2017-12-01T20:06:47.693Z,19.67
2017-12-01T20:09:15.224Z,20.98
2017-12-01T20:11:42.775Z,22.05
2017-12-01T20:14:10.299Z,21.45
2017-12-01T20:16:37.825Z,23.23
2017-12-01T20:19:05.338Z,23.70
2017-12-01T20:21:32.835Z,26.05
2017-12-01T20:24:00.304Z,26.05
2017-12-01T20:26:30.328Z,26.67
2017-12-01T20:28:57.881Z,23.98
2017-12-01T20:31:25.416Z,26.02
2017-12-01T20:33:52.898Z,29.58
2017-12-01T20:36:20.370Z,27.30
2017-12-01T20:38:47.961Z,26.48
2017-12-01T20:41:15.538Z,28.52
2017-12-01T20:43:43.078Z,24.02
2017-12-01T20:46:10.571Z,28.05
2017-12-01T20:48:38.818Z,29.12
2017-12-01T20:51:06.363Z,25.50
2017-12-01T20:53:34.100Z,27.00
2017-12-01T20:56:01.575Z,23.85
2017-12-01T20:58:29.095Z,27.08
2017-12-01T21:00:56.632Z,25.70
2017-12-01T21:03:24.381Z,28.73
2017-12-01T21:05:52.092Z,23.50
2017-12-01T21:08:19.650Z,23.62
2017-12-01T21:10:47.133Z,24.05
2017-12-01T21:13:14.642Z,24.92
2017-12-01T21:15:42.312Z,21.83
2017-12-01T21:18:09.817Z,23.70
2017-12-01T21:20:37.322Z,24.00
2017-12-01T21:23:04.853Z,23.75
2017-12-01T21:25:32.404Z,24.67
2017-12-01T21:27:59.874Z,25.50
2017-12-01T21:30:27.420Z,25.90
2017-12-01T21:32:55.077Z,25.40
2017-12-01T21:35:22.563Z,27.65
2017-12-01T21:37:50.039Z,23.87
2017-12-01T21:40:17.508Z,24.58
2017-12-01T21:42:44.975Z,25.77
2017-12-01T21:45:12.438Z,24.12
2017-12-01T21:47:40.773Z,25.75
2017-12-01T21:50:08.251Z,26.25
2017-12-01T21:52:35.749Z,24.42
2017-12-01T21:58:05.819Z,24.42
2017-12-01T22:00:35.096Z,26.73
2017-12-01T22:03:02.952Z,24.17
2017-12-01T22:05:31.362Z,26.23
2017-12-01T22:07:59.015Z,26.02
2017-12-01T22:10:26.666Z,25.50
2017-12-01T22:12:54.348Z,26.00
2017-12-01T22:15:21.929Z,25.55
2017-12-01T22:17:49.520Z,22.80
2017-12-01T22:20:17.568Z,24.65
2017-12-01T22:22:45.195Z,27.40
2017-12-01T22:25:13.049Z,24.12
2017-12-01T22:27:41.714Z,25.65
2017-12-01T22:30:09.406Z,23.90
2017-12-01T22:32:37.284Z,24.90
2017-12-01T22:35:04.978Z,24.30
2017-12-01T22:37:32.608Z,24.65
2017-12-01T22:40:00.246Z,21.87
2017-12-01T22:42:27.921Z,23.15
2017-12-01T22:44:55.725Z,21.75
2017-12-01T22:47:23.440Z,22.30
2017-12-01T22:49:51.098Z,20.67
2017-12-01T22:52:18.908Z,24.27
2017-12-01T22:54:46.510Z,22.80
2017-12-01T22:57:14.211Z,21.58
2017-12-01T22:59:41.812Z,22.00
2017-12-01T23:02:09.371Z,20.92
2017-12-01T23:04:37.062Z,20.55
2017-12-01T23:07:04.636Z,21.95
2017-12-01T23:09:32.207Z,23.12
2017-12-01T23:11:59.832Z,21.62
2017-12-01T23:14:27.490Z,23.52
2017-12-01T23:16:55.098Z,22.45
2017-12-01T23:19:22.726Z,22.30
2017-12-01T23:21:50.417Z,23.70
2017-12-01T23:24:18.485Z,22.05
2017-12-01T23:26:46.224Z,22.87
2017-12-01T23:29:13.865Z,23.67
2017-12-01T23:31:41.605Z,22.73
2017-12-01T23:34:09.346Z,23.20
2017-12-01T23:36:37.339Z,24.20
2017-12-01T23:39:05.170Z,23.55
2017-12-01T23:41:32.867Z,23.05
2017-12-01T23:44:00.462Z,23.08
2017-12-01T23:46:29.018Z,24.58
2017-12-01T23:48:56.536Z,20.42
2017-12-01T23:51:24.262Z,23.92
2017-12-01T23:53:51.807Z,22.80
2017-12-01T23:56:19.444Z,23.95
2017-12-01T23:58:47.015Z,22.40
